sensor_id;sensor_type;location;lat;lon;timestamp;P1;durP1;ratioP1;P2;durP2;ratioP2
20084;SDS011;10202;48.474;9.138;2023-04-06T00:01:57;11.03;;;6.73;;
20084;SDS011;10202;48.474;9.138;2023-04-06T00:04:25;10.07;;;6.70;;
20084;SDS011;10202;48.474;9.138;2023-04-06T00:07:00;11.07;;;6.70;;
20084;SDS011;10202;48.474;9.138;2023-04-06T00:09:26;10.90;;;6.50;;
20084;SDS011;10202;48.474;9.138;2023-04-06T00:11:51;10.70;;;6.90;;
20084;SDS011;10202;48.474;9.138;2023-04-06T00:14:17;8.07;;;5.90;;
20084;SDS011;10202;48.474;9.138;2023-04-06T00:16:47;10.33;;;6.67;;
20084;SDS011;10202;48.474;9.138;2023-04-06T00:19:17;9.53;;;6.43;;
20084;SDS011;10202;48.474;9.138;2023-04-06T00:21:45;8.13;;;6.47;;
20084;SDS011;10202;48.474;9.138;2023-04-06T00:24:13;10.50;;;7.40;;
20084;SDS011;10202;48.474;9.138;2023-04-06T00:26:41;13.40;;;8.00;;
20084;SDS011;10202;48.474;9.138;2023-04-06T00:29:09;13.30;;;8.40;;
20084;SDS011;10202;48.474;9.138;2023-04-06T00:31:42;14.73;;;8.73;;
20084;SDS011;10202;48.474;9.138;2023-04-06T00:34:12;13.30;;;9.60;;
20084;SDS011;10202;48.474;9.138;2023-04-06T00:36:45;14.03;;;9.30;;
20084;SDS011;10202;48.474;9.138;2023-04-06T00:39:13;13.93;;;9.40;;
20084;SDS011;10202;48.474;9.138;2023-04-06T00:41:40;14.00;;;9.30;;
20084;SDS011;10202;48.474;9.138;2023-04-06T00:44:19;15.00;;;9.60;;
20084;SDS011;10202;48.474;9.138;2023-04-06T00:46:45;15.37;;;9.40;;
20084;SDS011;10202;48.474;9.138;2023-04-06T00:49:11;13.83;;;9.80;;
20084;SDS011;10202;48.474;9.138;2023-04-06T00:51:39;16.50;;;9.30;;
20084;SDS011;10202;48.474;9.138;2023-04-06T00:54:07;15.27;;;8.90;;
20084;SDS011;10202;48.474;9.138;2023-04-06T00:56:34;16.63;;;10.07;;
20084;SDS011;10202;48.474;9.138;2023-04-06T00:59:00;12.93;;;8.97;;
20084;SDS011;10202;48.474;9.138;2023-04-06T01:01:29;17.27;;;9.27;;
20084;SDS011;10202;48.474;9.138;2023-04-06T01:04:02;11.83;;;8.40;;
20084;SDS011;10202;48.474;9.138;2023-04-06T01:06:38;13.70;;;9.00;;
20084;SDS011;10202;48.474;9.138;2023-04-06T01:09:06;16.00;;;9.53;;
20084;SDS011;10202;48.474;9.138;2023-04-06T01:11:35;16.10;;;9.30;;
20084;SDS011;10202;48.474;9.138;2023-04-06T01:14:04;15.10;;;9.73;;
20084;SDS011;10202;48.474;9.138;2023-04-06T01:16:44;16.43;;;9.60;;
20084;SDS011;10202;48.474;9.138;2023-04-06T01:19:18;13.70;;;8.87;;
20084;SDS011;10202;48.474;9.138;2023-04-06T01:21:48;16.43;;;9.47;;
20084;SDS011;10202;48.474;9.138;2023-04-06T01:24:18;16.00;;;9.70;;
20084;SDS011;10202;48.474;9.138;2023-04-06T01:27:05;14.67;;;9.47;;
20084;SDS011;10202;48.474;9.138;2023-04-06T01:30:00;15.07;;;9.00;;
20084;SDS011;10202;48.474;9.138;2023-04-06T01:32:46;14.20;;;8.97;;
20084;SDS011;10202;48.474;9.138;2023-04-06T01:35:20;11.87;;;8.40;;
20084;SDS011;10202;48.474;9.138;2023-04-06T01:37:59;14.87;;;8.93;;
20084;SDS011;10202;48.474;9.138;2023-04-06T01:40:32;13.80;;;9.20;;
20084;SDS011;10202;48.474;9.138;2023-04-06T01:43:02;13.73;;;8.93;;
20084;SDS011;10202;48.474;9.138;2023-04-06T01:45:45;12.53;;;8.63;;
20084;SDS011;10202;48.474;9.138;2023-04-06T01:48:17;13.23;;;8.93;;
20084;SDS011;10202;48.474;9.138;2023-04-06T01:50:43;15.17;;;9.03;;
20084;SDS011;10202;48.474;9.138;2023-04-06T01:53:17;16.30;;;8.93;;
20084;SDS011;10202;48.474;9.138;2023-04-06T01:55:49;12.67;;;8.43;;
20084;SDS011;10202;48.474;9.138;2023-04-06T01:58:21;17.10;;;9.40;;
20084;SDS011;10202;48.474;9.138;2023-04-06T02:00:49;13.67;;;9.03;;
20084;SDS011;10202;48.474;9.138;2023-04-06T02:03:15;17.00;;;9.30;;
20084;SDS011;10202;48.474;9.138;2023-04-06T02:05:49;13.73;;;9.30;;
20084;SDS011;10202;48.474;9.138;2023-04-06T02:08:29;14.47;;;9.00;;
20084;SDS011;10202;48.474;9.138;2023-04-06T02:10:54;12.27;;;8.70;;
20084;SDS011;10202;48.474;9.138;2023-04-06T02:13:31;15.10;;;9.33;;
20084;SDS011;10202;48.474;9.138;2023-04-06T02:15:57;16.30;;;9.50;;
20084;SDS011;10202;48.474;9.138;2023-04-06T02:18:30;14.73;;;8.93;;
20084;SDS011;10202;48.474;9.138;2023-04-06T02:20:56;13.97;;;8.90;;
20084;SDS011;10202;48.474;9.138;2023-04-06T02:23:24;12.70;;;8.93;;
20084;SDS011;10202;48.474;9.138;2023-04-06T02:25:52;16.03;;;9.43;;
20084;SDS011;10202;48.474;9.138;2023-04-06T02:28:20;14.20;;;9.20;;
20084;SDS011;10202;48.474;9.138;2023-04-06T02:30:46;14.70;;;9.37;;
20084;SDS011;10202;48.474;9.138;2023-04-06T02:33:12;13.70;;;9.07;;
20084;SDS011;10202;48.474;9.138;2023-04-06T02:35:43;13.70;;;8.93;;
20084;SDS011;10202;48.474;9.138;2023-04-06T02:38:12;14.40;;;8.93;;
20084;SDS011;10202;48.474;9.138;2023-04-06T02:40:38;12.60;;;8.40;;
20084;SDS011;10202;48.474;9.138;2023-04-06T02:43:14;12.67;;;9.07;;
20084;SDS011;10202;48.474;9.138;2023-04-06T02:45:45;13.03;;;8.67;;
20084;SDS011;10202;48.474;9.138;2023-04-06T02:48:13;16.10;;;9.27;;
20084;SDS011;10202;48.474;9.138;2023-04-06T02:50:42;12.93;;;9.20;;
20084;SDS011;10202;48.474;9.138;2023-04-06T02:53:10;14.63;;;9.13;;
20084;SDS011;10202;48.474;9.138;2023-04-06T02:55:38;12.57;;;8.30;;
20084;SDS011;10202;48.474;9.138;2023-04-06T02:58:06;12.50;;;8.67;;
20084;SDS011;10202;48.474;9.138;2023-04-06T03:00:41;13.30;;;8.50;;
20084;SDS011;10202;48.474;9.138;2023-04-06T03:03:12;15.13;;;8.70;;
20084;SDS011;10202;48.474;9.138;2023-04-06T03:05:41;14.57;;;9.10;;
20084;SDS011;10202;48.474;9.138;2023-04-06T03:08:13;13.67;;;9.17;;
20084;SDS011;10202;48.474;9.138;2023-04-06T03:10:43;12.90;;;8.87;;
20084;SDS011;10202;48.474;9.138;2023-04-06T03:13:16;11.53;;;8.43;;
20084;SDS011;10202;48.474;9.138;2023-04-06T03:15:48;15.53;;;9.10;;
20084;SDS011;10202;48.474;9.138;2023-04-06T03:18:21;15.53;;;8.63;;
20084;SDS011;10202;48.474;9.138;2023-04-06T03:20:51;18.00;;;8.70;;
20084;SDS011;10202;48.474;9.138;2023-04-06T03:23:24;15.60;;;8.80;;
20084;SDS011;10202;48.474;9.138;2023-04-06T03:25:54;14.40;;;9.13;;
20084;SDS011;10202;48.474;9.138;2023-04-06T03:28:22;16.07;;;9.23;;
20084;SDS011;10202;48.474;9.138;2023-04-06T03:30:57;15.73;;;9.47;;
20084;SDS011;10202;48.474;9.138;2023-04-06T03:33:41;12.77;;;8.60;;
20084;SDS011;10202;48.474;9.138;2023-04-06T03:36:10;15.83;;;8.60;;
20084;SDS011;10202;48.474;9.138;2023-04-06T03:38:44;14.53;;;9.00;;
20084;SDS011;10202;48.474;9.138;2023-04-06T03:41:15;15.10;;;9.27;;
20084;SDS011;10202;48.474;9.138;2023-04-06T03:43:59;13.50;;;8.70;;
20084;SDS011;10202;48.474;9.138;2023-04-06T03:46:25;13.33;;;8.80;;
20084;SDS011;10202;48.474;9.138;2023-04-06T03:48:57;14.43;;;9.33;;
20084;SDS011;10202;48.474;9.138;2023-04-06T03:51:25;15.30;;;9.70;;
20084;SDS011;10202;48.474;9.138;2023-04-06T03:53:57;17.17;;;9.43;;
20084;SDS011;10202;48.474;9.138;2023-04-06T03:56:25;14.67;;;9.43;;
20084;SDS011;10202;48.474;9.138;2023-04-06T03:58:53;13.17;;;8.73;;
20084;SDS011;10202;48.474;9.138;2023-04-06T04:01:21;12.97;;;9.27;;
20084;SDS011;10202;48.474;9.138;2023-04-06T04:03:47;13.63;;;9.33;;
20084;SDS011;10202;48.474;9.138;2023-04-06T04:06:16;32.33;;;10.00;;
20084;SDS011;10202;48.474;9.138;2023-04-06T04:08:42;12.37;;;8.40;;
20084;SDS011;10202;48.474;9.138;2023-04-06T04:11:09;12.73;;;8.67;;
20084;SDS011;10202;48.474;9.138;2023-04-06T04:13:37;17.43;;;9.10;;
20084;SDS011;10202;48.474;9.138;2023-04-06T04:16:05;13.20;;;9.50;;
20084;SDS011;10202;48.474;9.138;2023-04-06T04:18:31;13.13;;;8.80;;
20084;SDS011;10202;48.474;9.138;2023-04-06T04:20:56;15.03;;;8.80;;
20084;SDS011;10202;48.474;9.138;2023-04-06T04:23:25;13.90;;;8.60;;
20084;SDS011;10202;48.474;9.138;2023-04-06T04:25:51;12.63;;;8.50;;
20084;SDS011;10202;48.474;9.138;2023-04-06T04:28:21;15.30;;;8.80;;
20084;SDS011;10202;48.474;9.138;2023-04-06T04:30:55;14.77;;;8.30;;
20084;SDS011;10202;48.474;9.138;2023-04-06T04:33:22;12.33;;;8.07;;
20084;SDS011;10202;48.474;9.138;2023-04-06T04:35:49;11.40;;;7.97;;
20084;SDS011;10202;48.474;9.138;2023-04-06T04:38:23;12.97;;;8.00;;
20084;SDS011;10202;48.474;9.138;2023-04-06T04:40:54;12.50;;;8.07;;
20084;SDS011;10202;48.474;9.138;2023-04-06T04:43:21;12.40;;;8.40;;
20084;SDS011;10202;48.474;9.138;2023-04-06T04:45:46;13.97;;;8.50;;
20084;SDS011;10202;48.474;9.138;2023-04-06T04:48:37;23.67;;;8.63;;
20084;SDS011;10202;48.474;9.138;2023-04-06T04:51:10;14.27;;;8.77;;
20084;SDS011;10202;48.474;9.138;2023-04-06T04:53:53;13.27;;;8.50;;
20084;SDS011;10202;48.474;9.138;2023-04-06T04:56:28;11.97;;;8.70;;
20084;SDS011;10202;48.474;9.138;2023-04-06T04:59:15;14.10;;;8.13;;
20084;SDS011;10202;48.474;9.138;2023-04-06T05:01:50;12.27;;;8.03;;
20084;SDS011;10202;48.474;9.138;2023-04-06T05:04:19;11.13;;;8.27;;
20084;SDS011;10202;48.474;9.138;2023-04-06T05:06:46;11.73;;;7.50;;
20084;SDS011;10202;48.474;9.138;2023-04-06T05:09:17;11.80;;;8.17;;
20084;SDS011;10202;48.474;9.138;2023-04-06T05:11:45;13.90;;;8.20;;
20084;SDS011;10202;48.474;9.138;2023-04-06T05:14:13;12.93;;;7.63;;
20084;SDS011;10202;48.474;9.138;2023-04-06T05:16:45;11.83;;;7.97;;
20084;SDS011;10202;48.474;9.138;2023-04-06T05:19:13;17.17;;;8.73;;
20084;SDS011;10202;48.474;9.138;2023-04-06T05:21:43;13.73;;;8.77;;
20084;SDS011;10202;48.474;9.138;2023-04-06T05:24:11;13.03;;;7.87;;
20084;SDS011;10202;48.474;9.138;2023-04-06T05:26:43;13.47;;;8.20;;
20084;SDS011;10202;48.474;9.138;2023-04-06T05:29:18;17.47;;;9.57;;
20084;SDS011;10202;48.474;9.138;2023-04-06T05:31:46;40.00;;;13.17;;
20084;SDS011;10202;48.474;9.138;2023-04-06T05:34:12;65.40;;;25.53;;
20084;SDS011;10202;48.474;9.138;2023-04-06T05:36:47;65.43;;;25.70;;
20084;SDS011;10202;48.474;9.138;2023-04-06T05:39:21;51.13;;;22.73;;
20084;SDS011;10202;48.474;9.138;2023-04-06T05:41:51;53.30;;;22.17;;
20084;SDS011;10202;48.474;9.138;2023-04-06T05:44:48;49.53;;;23.97;;
20084;SDS011;10202;48.474;9.138;2023-04-06T05:47:15;51.97;;;24.63;;
20084;SDS011;10202;48.474;9.138;2023-04-06T05:49:43;46.57;;;22.63;;
20084;SDS011;10202;48.474;9.138;2023-04-06T05:52:19;24.87;;;12.87;;
20084;SDS011;10202;48.474;9.138;2023-04-06T05:54:47;16.80;;;9.43;;
20084;SDS011;10202;48.474;9.138;2023-04-06T05:57:15;16.37;;;9.27;;
20084;SDS011;10202;48.474;9.138;2023-04-06T05:59:47;15.40;;;8.70;;
20084;SDS011;10202;48.474;9.138;2023-04-06T06:02:13;15.50;;;9.13;;
20084;SDS011;10202;48.474;9.138;2023-04-06T06:04:48;12.03;;;8.03;;
20084;SDS011;10202;48.474;9.138;2023-04-06T06:07:19;13.53;;;8.20;;
20084;SDS011;10202;48.474;9.138;2023-04-06T06:10:00;12.67;;;8.10;;
20084;SDS011;10202;48.474;9.138;2023-04-06T06:12:30;15.97;;;9.00;;
20084;SDS011;10202;48.474;9.138;2023-04-06T06:14:57;12.57;;;8.60;;
20084;SDS011;10202;48.474;9.138;2023-04-06T06:17:29;14.83;;;9.10;;
20084;SDS011;10202;48.474;9.138;2023-04-06T06:19:57;14.87;;;9.50;;
20084;SDS011;10202;48.474;9.138;2023-04-06T06:22:25;13.53;;;8.97;;
20084;SDS011;10202;48.474;9.138;2023-04-06T06:24:51;16.60;;;9.63;;
20084;SDS011;10202;48.474;9.138;2023-04-06T06:27:21;16.23;;;8.90;;
20084;SDS011;10202;48.474;9.138;2023-04-06T06:29:49;17.00;;;9.97;;
20084;SDS011;10202;48.474;9.138;2023-04-06T06:32:18;13.17;;;9.03;;
20084;SDS011;10202;48.474;9.138;2023-04-06T06:34:50;16.93;;;10.13;;
20084;SDS011;10202;48.474;9.138;2023-04-06T06:37:17;16.60;;;10.33;;
20084;SDS011;10202;48.474;9.138;2023-04-06T06:39:48;24.87;;;12.97;;
20084;SDS011;10202;48.474;9.138;2023-04-06T06:42:14;20.77;;;12.67;;
20084;SDS011;10202;48.474;9.138;2023-04-06T06:45:06;17.47;;;11.50;;
20084;SDS011;10202;48.474;9.138;2023-04-06T06:47:32;16.13;;;10.77;;
20084;SDS011;10202;48.474;9.138;2023-04-06T06:50:03;15.70;;;10.87;;
20084;SDS011;10202;48.474;9.138;2023-04-06T06:52:30;16.50;;;10.63;;
20084;SDS011;10202;48.474;9.138;2023-04-06T06:55:03;18.37;;;11.10;;
20084;SDS011;10202;48.474;9.138;2023-04-06T06:57:34;15.87;;;9.90;;
20084;SDS011;10202;48.474;9.138;2023-04-06T07:00:00;17.00;;;10.20;;
20084;SDS011;10202;48.474;9.138;2023-04-06T07:02:29;15.40;;;9.60;;
20084;SDS011;10202;48.474;9.138;2023-04-06T07:04:57;19.47;;;10.03;;
20084;SDS011;10202;48.474;9.138;2023-04-06T07:07:28;16.87;;;9.57;;
20084;SDS011;10202;48.474;9.138;2023-04-06T07:09:54;15.30;;;9.00;;
20084;SDS011;10202;48.474;9.138;2023-04-06T07:12:20;13.43;;;9.03;;
20084;SDS011;10202;48.474;9.138;2023-04-06T07:14:50;16.63;;;9.23;;
20084;SDS011;10202;48.474;9.138;2023-04-06T07:17:16;22.20;;;9.00;;
20084;SDS011;10202;48.474;9.138;2023-04-06T07:19:45;14.50;;;9.10;;
20084;SDS011;10202;48.474;9.138;2023-04-06T07:22:15;13.63;;;8.73;;
20084;SDS011;10202;48.474;9.138;2023-04-06T07:24:41;13.33;;;8.83;;
20084;SDS011;10202;48.474;9.138;2023-04-06T07:27:13;12.50;;;8.87;;
20084;SDS011;10202;48.474;9.138;2023-04-06T07:29:38;15.90;;;9.50;;
20084;SDS011;10202;48.474;9.138;2023-04-06T07:32:07;13.40;;;8.80;;
20084;SDS011;10202;48.474;9.138;2023-04-06T07:34:33;15.03;;;9.30;;
20084;SDS011;10202;48.474;9.138;2023-04-06T07:37:00;15.37;;;9.63;;
20084;SDS011;10202;48.474;9.138;2023-04-06T07:39:28;15.17;;;9.40;;
20084;SDS011;10202;48.474;9.138;2023-04-06T07:41:56;14.25;;;9.63;;
20084;SDS011;10202;48.474;9.138;2023-04-06T07:44:22;15.10;;;10.00;;
20084;SDS011;10202;48.474;9.138;2023-04-06T07:46:48;14.00;;;9.10;;
20084;SDS011;10202;48.474;9.138;2023-04-06T07:49:14;16.80;;;9.98;;
20084;SDS011;10202;48.474;9.138;2023-04-06T07:51:45;14.30;;;9.48;;
20084;SDS011;10202;48.474;9.138;2023-04-06T07:54:17;17.87;;;9.80;;
20084;SDS011;10202;48.474;9.138;2023-04-06T07:56:48;16.38;;;9.48;;
20084;SDS011;10202;48.474;9.138;2023-04-06T07:59:15;14.90;;;9.93;;
20084;SDS011;10202;48.474;9.138;2023-04-06T08:01:41;17.55;;;9.80;;
20084;SDS011;10202;48.474;9.138;2023-04-06T08:04:09;15.30;;;10.07;;
20084;SDS011;10202;48.474;9.138;2023-04-06T08:06:39;14.57;;;9.73;;
20084;SDS011;10202;48.474;9.138;2023-04-06T08:09:07;15.55;;;9.75;;
20084;SDS011;10202;48.474;9.138;2023-04-06T08:11:33;16.65;;;9.82;;
20084;SDS011;10202;48.474;9.138;2023-04-06T08:14:01;13.05;;;9.40;;
20084;SDS011;10202;48.474;9.138;2023-04-06T08:16:27;13.65;;;9.23;;
20084;SDS011;10202;48.474;9.138;2023-04-06T08:18:53;13.80;;;9.40;;
20084;SDS011;10202;48.474;9.138;2023-04-06T08:21:18;16.05;;;9.63;;
20084;SDS011;10202;48.474;9.138;2023-04-06T08:23:49;15.23;;;9.82;;
20084;SDS011;10202;48.474;9.138;2023-04-06T08:26:18;12.38;;;8.98;;
20084;SDS011;10202;48.474;9.138;2023-04-06T08:28:46;14.65;;;10.13;;
20084;SDS011;10202;48.474;9.138;2023-04-06T08:31:14;14.38;;;8.98;;
20084;SDS011;10202;48.474;9.138;2023-04-06T08:33:44;16.88;;;9.50;;
20084;SDS011;10202;48.474;9.138;2023-04-06T08:36:13;14.50;;;9.07;;
20084;SDS011;10202;48.474;9.138;2023-04-06T08:38:40;11.95;;;8.43;;
20084;SDS011;10202;48.474;9.138;2023-04-06T08:41:12;12.95;;;8.60;;
20084;SDS011;10202;48.474;9.138;2023-04-06T08:43:41;12.45;;;8.70;;
20084;SDS011;10202;48.474;9.138;2023-04-06T08:46:12;16.40;;;8.70;;
20084;SDS011;10202;48.474;9.138;2023-04-06T08:48:44;14.63;;;7.50;;
20084;SDS011;10202;48.474;9.138;2023-04-06T08:51:11;11.93;;;8.05;;
20084;SDS011;10202;48.474;9.138;2023-04-06T08:53:42;11.23;;;7.80;;
20084;SDS011;10202;48.474;9.138;2023-04-06T08:56:07;13.60;;;8.93;;
20084;SDS011;10202;48.474;9.138;2023-04-06T08:58:39;12.75;;;7.70;;
20084;SDS011;10202;48.474;9.138;2023-04-06T09:01:06;13.48;;;8.40;;
20084;SDS011;10202;48.474;9.138;2023-04-06T09:03:38;13.40;;;8.05;;
20084;SDS011;10202;48.474;9.138;2023-04-06T09:06:05;12.10;;;7.85;;
20084;SDS011;10202;48.474;9.138;2023-04-06T09:08:35;12.05;;;8.00;;
20084;SDS011;10202;48.474;9.138;2023-04-06T09:11:06;14.73;;;8.40;;
20084;SDS011;10202;48.474;9.138;2023-04-06T09:13:48;11.27;;;8.40;;
20084;SDS011;10202;48.474;9.138;2023-04-06T09:16:20;11.75;;;7.78;;
20084;SDS011;10202;48.474;9.138;2023-04-06T09:18:46;13.60;;;8.73;;
20084;SDS011;10202;48.474;9.138;2023-04-06T09:21:21;10.38;;;7.40;;
20084;SDS011;10202;48.474;9.138;2023-04-06T09:23:47;15.13;;;8.40;;
20084;SDS011;10202;48.474;9.138;2023-04-06T09:26:27;12.27;;;8.20;;
20084;SDS011;10202;48.474;9.138;2023-04-06T09:28:59;10.88;;;7.57;;
20084;SDS011;10202;48.474;9.138;2023-04-06T09:31:29;11.85;;;7.38;;
20084;SDS011;10202;48.474;9.138;2023-04-06T09:33:58;10.88;;;6.88;;
20084;SDS011;10202;48.474;9.138;2023-04-06T09:36:33;10.85;;;6.75;;
20084;SDS011;10202;48.474;9.138;2023-04-06T09:39:03;15.63;;;7.30;;
20084;SDS011;10202;48.474;9.138;2023-04-06T09:41:36;10.85;;;6.57;;
20084;SDS011;10202;48.474;9.138;2023-04-06T09:44:10;12.20;;;7.28;;
20084;SDS011;10202;48.474;9.138;2023-04-06T09:46:41;10.15;;;6.80;;
20084;SDS011;10202;48.474;9.138;2023-04-06T09:49:12;7.13;;;5.53;;
20084;SDS011;10202;48.474;9.138;2023-04-06T09:54:07;11.93;;;7.30;;
20084;SDS011;10202;48.474;9.138;2023-04-06T09:56:34;13.27;;;7.18;;
20084;SDS011;10202;48.474;9.138;2023-04-06T09:59:11;8.75;;;6.15;;
20084;SDS011;10202;48.474;9.138;2023-04-06T10:01:41;13.68;;;6.50;;
20084;SDS011;10202;48.474;9.138;2023-04-06T10:07:14;9.90;;;5.68;;
20084;SDS011;10202;48.474;9.138;2023-04-06T10:09:42;7.93;;;5.57;;
20084;SDS011;10202;48.474;9.138;2023-04-06T10:12:14;9.07;;;5.60;;
20084;SDS011;10202;48.474;9.138;2023-04-06T10:14:43;6.32;;;4.78;;
20084;SDS011;10202;48.474;9.138;2023-04-06T10:17:11;9.50;;;5.38;;
20084;SDS011;10202;48.474;9.138;2023-04-06T10:19:56;6.85;;;4.85;;
20084;SDS011;10202;48.474;9.138;2023-04-06T10:22:49;8.93;;;5.40;;
20084;SDS011;10202;48.474;9.138;2023-04-06T10:25:31;12.38;;;5.13;;
20084;SDS011;10202;48.474;9.138;2023-04-06T10:27:59;11.13;;;5.43;;
20084;SDS011;10202;48.474;9.138;2023-04-06T10:30:34;6.63;;;5.07;;
20084;SDS011;10202;48.474;9.138;2023-04-06T10:33:18;8.30;;;5.13;;
20084;SDS011;10202;48.474;9.138;2023-04-06T10:35:45;7.53;;;5.32;;
20084;SDS011;10202;48.474;9.138;2023-04-06T10:38:16;9.30;;;5.00;;
20084;SDS011;10202;48.474;9.138;2023-04-06T10:40:46;10.50;;;5.25;;
20084;SDS011;10202;48.474;9.138;2023-04-06T10:43:21;7.00;;;4.70;;
20084;SDS011;10202;48.474;9.138;2023-04-06T10:45:54;6.80;;;4.38;;
20084;SDS011;10202;48.474;9.138;2023-04-06T10:51:12;6.88;;;4.22;;
20084;SDS011;10202;48.474;9.138;2023-04-06T10:53:45;7.18;;;4.72;;
20084;SDS011;10202;48.474;9.138;2023-04-06T10:56:17;7.68;;;4.50;;
20084;SDS011;10202;48.474;9.138;2023-04-06T10:58:44;6.80;;;4.72;;
20084;SDS011;10202;48.474;9.138;2023-04-06T11:01:16;6.43;;;4.40;;
20084;SDS011;10202;48.474;9.138;2023-04-06T11:03:46;6.68;;;4.30;;
20084;SDS011;10202;48.474;9.138;2023-04-06T11:08:54;7.55;;;4.53;;
20084;SDS011;10202;48.474;9.138;2023-04-06T11:11:23;6.20;;;4.43;;
20084;SDS011;10202;48.474;9.138;2023-04-06T11:13:58;8.10;;;4.50;;
20084;SDS011;10202;48.474;9.138;2023-04-06T11:16:25;6.68;;;4.57;;
20084;SDS011;10202;48.474;9.138;2023-04-06T11:19:01;7.55;;;4.85;;
20084;SDS011;10202;48.474;9.138;2023-04-06T11:21:35;7.65;;;5.50;;
20084;SDS011;10202;48.474;9.138;2023-04-06T11:24:05;7.63;;;4.70;;
20084;SDS011;10202;48.474;9.138;2023-04-06T11:26:39;6.50;;;4.40;;
20084;SDS011;10202;48.474;9.138;2023-04-06T11:29:05;6.30;;;4.50;;
20084;SDS011;10202;48.474;9.138;2023-04-06T11:31:42;6.35;;;4.45;;
20084;SDS011;10202;48.474;9.138;2023-04-06T11:34:20;7.53;;;4.60;;
20084;SDS011;10202;48.474;9.138;2023-04-06T11:36:48;7.00;;;5.15;;
20084;SDS011;10202;48.474;9.138;2023-04-06T11:39:22;6.78;;;4.85;;
20084;SDS011;10202;48.474;9.138;2023-04-06T11:41:56;7.65;;;5.57;;
20084;SDS011;10202;48.474;9.138;2023-04-06T11:47:04;10.13;;;5.93;;
20084;SDS011;10202;48.474;9.138;2023-04-06T11:49:41;6.82;;;5.18;;
20084;SDS011;10202;48.474;9.138;2023-04-06T11:54:47;9.80;;;6.05;;
20084;SDS011;10202;48.474;9.138;2023-04-06T11:57:17;14.48;;;6.03;;
20084;SDS011;10202;48.474;9.138;2023-04-06T11:59:48;10.23;;;6.53;;
20084;SDS011;10202;48.474;9.138;2023-04-06T12:02:18;7.93;;;5.82;;
20084;SDS011;10202;48.474;9.138;2023-04-06T12:04:47;9.95;;;5.95;;
20084;SDS011;10202;48.474;9.138;2023-04-06T12:07:15;8.88;;;6.00;;
20084;SDS011;10202;48.474;9.138;2023-04-06T12:09:43;10.85;;;6.30;;
20084;SDS011;10202;48.474;9.138;2023-04-06T12:12:08;8.27;;;6.20;;
20084;SDS011;10202;48.474;9.138;2023-04-06T12:14:36;9.05;;;5.85;;
20084;SDS011;10202;48.474;9.138;2023-04-06T12:17:04;7.78;;;6.03;;
20084;SDS011;10202;48.474;9.138;2023-04-06T12:19:34;10.25;;;5.65;;
20084;SDS011;10202;48.474;9.138;2023-04-06T12:22:02;8.27;;;6.00;;
20084;SDS011;10202;48.474;9.138;2023-04-06T12:24:28;9.40;;;5.75;;
20084;SDS011;10202;48.474;9.138;2023-04-06T12:26:54;7.30;;;5.45;;
20084;SDS011;10202;48.474;9.138;2023-04-06T12:29:25;7.90;;;5.55;;
20084;SDS011;10202;48.474;9.138;2023-04-06T12:31:55;9.57;;;5.53;;
20084;SDS011;10202;48.474;9.138;2023-04-06T12:34:21;6.53;;;4.95;;
20084;SDS011;10202;48.474;9.138;2023-04-06T12:36:47;8.98;;;5.95;;
20084;SDS011;10202;48.474;9.138;2023-04-06T12:39:12;7.63;;;5.40;;
20084;SDS011;10202;48.474;9.138;2023-04-06T12:41:47;9.93;;;5.43;;
20084;SDS011;10202;48.474;9.138;2023-04-06T12:44:17;7.68;;;5.55;;
20084;SDS011;10202;48.474;9.138;2023-04-06T12:46:46;8.98;;;5.38;;
20084;SDS011;10202;48.474;9.138;2023-04-06T12:49:14;9.25;;;6.00;;
20084;SDS011;10202;48.474;9.138;2023-04-06T12:51:44;9.77;;;6.28;;
20084;SDS011;10202;48.474;9.138;2023-04-06T12:54:10;7.63;;;5.45;;
20084;SDS011;10202;48.474;9.138;2023-04-06T12:56:41;10.07;;;5.70;;
20084;SDS011;10202;48.474;9.138;2023-04-06T12:59:09;11.18;;;6.03;;
20084;SDS011;10202;48.474;9.138;2023-04-06T13:01:37;7.57;;;5.28;;
20084;SDS011;10202;48.474;9.138;2023-04-06T13:04:07;7.00;;;5.22;;
20084;SDS011;10202;48.474;9.138;2023-04-06T13:06:33;10.73;;;5.70;;
20084;SDS011;10202;48.474;9.138;2023-04-06T13:08:58;8.05;;;5.43;;
20084;SDS011;10202;48.474;9.138;2023-04-06T13:11:25;10.38;;;5.75;;
20084;SDS011;10202;48.474;9.138;2023-04-06T13:13:51;8.35;;;5.13;;
20084;SDS011;10202;48.474;9.138;2023-04-06T13:16:19;10.07;;;5.18;;
20084;SDS011;10202;48.474;9.138;2023-04-06T13:18:50;7.60;;;4.43;;
20084;SDS011;10202;48.474;9.138;2023-04-06T13:21:18;7.78;;;4.32;;
20084;SDS011;10202;48.474;9.138;2023-04-06T13:23:46;6.85;;;4.50;;
20084;SDS011;10202;48.474;9.138;2023-04-06T13:26:11;6.55;;;5.05;;
20084;SDS011;10202;48.474;9.138;2023-04-06T13:28:41;8.95;;;4.88;;
20084;SDS011;10202;48.474;9.138;2023-04-06T13:31:09;9.00;;;4.57;;
20084;SDS011;10202;48.474;9.138;2023-04-06T13:33:35;8.10;;;4.03;;
20084;SDS011;10202;48.474;9.138;2023-04-06T13:36:03;7.43;;;3.85;;
20084;SDS011;10202;48.474;9.138;2023-04-06T13:38:33;5.30;;;4.05;;
20084;SDS011;10202;48.474;9.138;2023-04-06T13:40:59;6.75;;;4.03;;
20084;SDS011;10202;48.474;9.138;2023-04-06T13:43:27;5.22;;;3.50;;
20084;SDS011;10202;48.474;9.138;2023-04-06T13:45:57;4.47;;;3.55;;
20084;SDS011;10202;48.474;9.138;2023-04-06T13:48:28;5.63;;;3.83;;
20084;SDS011;10202;48.474;9.138;2023-04-06T13:51:07;3.90;;;3.42;;
20084;SDS011;10202;48.474;9.138;2023-04-06T13:53:39;8.02;;;4.03;;
20084;SDS011;10202;48.474;9.138;2023-04-06T13:56:05;6.22;;;4.40;;
20084;SDS011;10202;48.474;9.138;2023-04-06T13:58:32;8.10;;;4.03;;
20084;SDS011;10202;48.474;9.138;2023-04-06T14:01:05;7.72;;;3.95;;
20084;SDS011;10202;48.474;9.138;2023-04-06T14:03:37;6.68;;;3.58;;
20084;SDS011;10202;48.474;9.138;2023-04-06T14:06:11;5.15;;;3.55;;
20084;SDS011;10202;48.474;9.138;2023-04-06T14:08:43;5.10;;;3.50;;
20084;SDS011;10202;48.474;9.138;2023-04-06T14:11:12;5.50;;;3.90;;
20084;SDS011;10202;48.474;9.138;2023-04-06T14:13:38;7.07;;;4.40;;
20084;SDS011;10202;48.474;9.138;2023-04-06T14:16:09;5.50;;;3.75;;
20084;SDS011;10202;48.474;9.138;2023-04-06T14:18:39;8.23;;;3.65;;
20084;SDS011;10202;48.474;9.138;2023-04-06T14:21:07;5.68;;;4.10;;
20084;SDS011;10202;48.474;9.138;2023-04-06T14:23:34;5.25;;;3.72;;
20084;SDS011;10202;48.474;9.138;2023-04-06T14:26:05;6.95;;;4.25;;
20084;SDS011;10202;48.474;9.138;2023-04-06T14:28:33;6.05;;;4.07;;
20084;SDS011;10202;48.474;9.138;2023-04-06T14:31:10;4.93;;;3.72;;
20084;SDS011;10202;48.474;9.138;2023-04-06T14:33:41;6.25;;;4.30;;
20084;SDS011;10202;48.474;9.138;2023-04-06T14:36:12;4.50;;;3.90;;
20084;SDS011;10202;48.474;9.138;2023-04-06T14:38:40;7.38;;;4.50;;
20084;SDS011;10202;48.474;9.138;2023-04-06T14:41:08;8.00;;;4.22;;
20084;SDS011;10202;48.474;9.138;2023-04-06T14:43:43;5.38;;;4.20;;
20084;SDS011;10202;48.474;9.138;2023-04-06T14:46:14;6.60;;;4.35;;
20084;SDS011;10202;48.474;9.138;2023-04-06T14:48:44;5.10;;;4.15;;
20084;SDS011;10202;48.474;9.138;2023-04-06T14:51:15;5.30;;;3.67;;
20084;SDS011;10202;48.474;9.138;2023-04-06T14:53:41;5.68;;;4.10;;
20084;SDS011;10202;48.474;9.138;2023-04-06T14:56:09;7.65;;;4.10;;
20084;SDS011;10202;48.474;9.138;2023-04-06T14:58:39;10.13;;;4.63;;
20084;SDS011;10202;48.474;9.138;2023-04-06T15:01:05;5.20;;;3.80;;
20084;SDS011;10202;48.474;9.138;2023-04-06T15:03:33;6.10;;;4.00;;
20084;SDS011;10202;48.474;9.138;2023-04-06T15:06:02;5.75;;;3.75;;
20084;SDS011;10202;48.474;9.138;2023-04-06T15:08:30;6.28;;;4.63;;
20084;SDS011;10202;48.474;9.138;2023-04-06T15:10:59;6.05;;;3.67;;
20084;SDS011;10202;48.474;9.138;2023-04-06T15:13:27;7.18;;;4.28;;